Time;durP1;ratioP1;P1;durP2;ratioP2;P2;SDS_P1;SDS_P2;PMS_P1;PMS_P2;Temp;Humidity;BMP_temperature;BMP_pressure;BME280_temperature;BME280_humidity;BME280_pressure;Samples;Min_cycle;Max_cycle;Signal;HPM_P1;HPM_P2
2024/01/25 00:00:51;;;;;;;22.40;14.07;;;;;;;7.99;61.37;95156.47;5112951;28;20189;-67
2024/01/25 00:03:18;;;;;;;25.50;14.97;;;;;;;7.99;61.52;95154.72;5122736;28;20204;-66
2024/01/25 00:05:44;;;;;;;23.50;14.27;;;;;;;7.79;61.29;95112.84;5111931;28;20550;-64
2024/01/25 00:08:13;;;;;;;20.63;13.60;;;;;;;8.00;61.22;95137.72;5111827;28;20209;-67
2024/01/25 00:10:39;;;;;;;24.00;15.10;;;;;;;8.02;61.20;95135.84;5111139;28;20527;-69
2024/01/25 00:13:06;;;;;;;23.50;14.80;;;;;;;7.80;61.26;95088.22;5112135;28;20188;-68
2024/01/25 00:15:33;;;;;;;20.87;14.07;;;;;;;8.05;61.29;95117.81;5111576;28;20199;-63
2024/01/25 00:18:00;;;;;;;25.33;14.60;;;;;;;7.90;61.09;95073.06;5111690;28;20184;-70
2024/01/25 00:20:27;;;;;;;22.77;12.93;;;;;;;7.87;61.30;95056.31;5110800;28;20779;-64
2024/01/25 00:22:54;;;;;;;24.53;13.90;;;;;;;8.06;61.33;95065.94;5110132;28;20650;-66
2024/01/25 00:25:22;;;;;;;21.37;13.57;;;;;;;8.07;61.29;95049.72;5109578;28;20642;-65
2024/01/25 00:27:48;;;;;;;20.13;13.10;;;;;;;8.01;61.35;95020.44;5111386;28;20227;-69
2024/01/25 00:30:15;;;;;;;20.30;13.13;;;;;;;8.06;61.34;95027.72;5111315;28;20190;-68
2024/01/25 00:32:42;;;;;;;21.33;13.00;;;;;;;7.87;61.17;95002.03;5111012;28;20322;-67
2024/01/25 00:35:13;;;;;;;21.67;13.77;;;;;;;8.10;61.38;95030.88;5110894;28;20673;-70
2024/01/25 00:37:40;;;;;;;21.67;13.23;;;;;;;7.82;61.23;94983.72;5111059;28;20192;-63
2024/01/25 00:40:09;;;;;;;22.87;13.63;;;;;;;7.74;61.18;94976.66;5111067;28;20199;-69
2024/01/25 00:42:42;;;;;;;23.50;13.00;;;;;;;8.13;61.05;95056.94;5110605;28;20257;-67
2024/01/25 00:45:10;;;;;;;19.37;13.17;;;;;;;8.14;61.36;95055.19;5110849;28;20189;-66
2024/01/25 00:47:38;;;;;;;24.90;12.83;;;;;;;8.15;61.06;95052.50;5110593;28;20236;-68
2024/01/25 00:50:06;;;;;;;17.97;12.07;;;;;;;8.15;61.29;95034.69;5110699;28;20177;-68
2024/01/25 00:52:33;;;;;;;24.47;12.37;;;;;;;8.17;61.19;95024.41;5110608;28;20577;-68
2024/01/25 00:55:01;;;;;;;20.73;12.90;;;;;;;8.14;61.17;95025.44;5110136;28;20665;-65
2024/01/25 00:57:28;;;;;;;22.87;12.57;;;;;;;8.20;61.15;95037.72;5109552;28;20221;-69
2024/01/25 00:59:57;;;;;;;22.77;12.33;;;;;;;8.15;61.17;95029.59;5109672;28;20242;-66
2024/01/25 01:02:25;;;;;;;23.00;12.53;;;;;;;8.05;61.20;95014.19;5100502;28;20194;-66
2024/01/25 01:04:52;;;;;;;20.33;12.13;;;;;;;8.23;61.11;95037.47;5105801;28;20673;-66
2024/01/25 01:07:20;;;;;;;17.03;11.47;;;;;;;8.24;61.14;95051.81;5110181;28;20216;-66
2024/01/25 01:09:46;;;;;;;20.40;12.77;;;;;;;8.26;61.18;95051.72;5110380;28;20189;-65
2024/01/25 01:12:13;;;;;;;18.47;11.70;;;;;;;8.27;61.38;95046.50;5109951;28;20196;-67
2024/01/25 01:14:40;;;;;;;17.17;11.50;;;;;;;8.28;61.19;95042.22;5110521;28;20200;-64
2024/01/25 01:17:08;;;;;;;20.47;12.37;;;;;;;8.28;61.01;95037.94;5110311;28;20189;-67
2024/01/25 01:19:35;;;;;;;19.27;12.13;;;;;;;8.29;61.00;95037.03;5110556;28;20281;-68
2024/01/25 01:22:02;;;;;;;18.83;11.53;;;;;;;8.31;60.97;95019.06;5110296;28;20681;-64
2024/01/25 01:24:29;;;;;;;19.73;11.63;;;;;;;8.09;61.19;94957.94;5109821;28;20192;-67
2024/01/25 01:26:55;;;;;;;19.80;11.53;;;;;;;8.33;60.95;94984.06;5110070;28;20242;-63
2024/01/25 01:29:22;;;;;;;18.50;12.37;;;;;;;8.33;61.21;94980.72;5109959;28;20273;-66
2024/01/25 01:31:49;;;;;;;20.40;11.97;;;;;;;8.35;61.01;94984.78;5109565;28;20199;-66
2024/01/25 01:34:18;;;;;;;17.93;10.90;;;;;;;8.35;61.09;94989.88;5109624;28;20177;-62
2024/01/25 01:36:44;;;;;;;15.30;10.47;;;;;;;8.36;61.05;94988.94;5110328;28;20219;-63
2024/01/25 01:39:11;;;;;;;18.10;10.73;;;;;;;8.06;60.92;94930.94;5106068;28;20193;-63
2024/01/25 01:41:38;;;;;;;12.53;9.43;;;;;;;8.40;60.97;94971.72;5110074;28;20653;-64
2024/01/25 01:44:05;;;;;;;18.27;10.23;;;;;;;7.77;60.75;94867.78;5107434;28;20241;-61
2024/01/25 01:46:34;;;;;;;13.17;10.10;;;;;;;8.43;60.85;94964.66;5108022;28;20185;-62
2024/01/25 01:49:02;;;;;;;12.57;9.67;;;;;;;8.46;60.88;94954.22;5107359;28;20209;-64
2024/01/25 01:51:32;;;;;;;15.47;9.80;;;;;;;8.49;60.76;94948.88;5107064;28;20189;-66
2024/01/25 01:54:01;;;;;;;17.37;9.50;;;;;;;8.37;60.65;94926.88;5106962;28;20189;-63
2024/01/25 01:56:29;;;;;;;11.77;8.63;;;;;;;8.57;60.74;94953.38;5106823;28;20290;-63
2024/01/25 01:58:58;;;;;;;13.30;8.60;;;;;;;8.63;60.45;94949.53;5106963;28;20212;-64
2024/01/25 02:01:25;;;;;;;11.70;7.57;;;;;;;8.52;60.66;94917.25;5109498;28;20192;-64
2024/01/25 02:03:52;;;;;;;11.90;7.87;;;;;;;8.73;60.59;94940.28;5111040;28;20253;-68
2024/01/25 02:06:19;;;;;;;10.67;7.07;;;;;;;8.79;60.34;94943.13;5110989;28;20193;-64
2024/01/25 02:08:48;;;;;;;9.90;7.50;;;;;;;8.85;60.30;94929.09;5112748;28;20302;-64
2024/01/25 02:11:15;;;;;;;12.40;6.90;;;;;;;8.90;60.38;94931.28;5109999;28;20201;-66
2024/01/25 02:13:42;;;;;;;9.37;6.20;;;;;;;8.92;60.23;94932.78;5114173;28;20221;-68
2024/01/25 02:16:09;;;;;;;9.90;6.17;;;;;;;9.00;60.24;94935.53;5113810;28;20204;-67
2024/01/25 02:18:36;;;;;;;8.83;6.30;;;;;;;9.06;60.19;94941.88;5113831;28;20184;-69
2024/01/25 02:21:03;;;;;;;8.87;6.17;;;;;;;9.11;60.30;94949.16;5113159;28;20186;-64
2024/01/25 02:23:31;;;;;;;8.77;5.63;;;;;;;9.16;60.16;94941.97;5113605;28;20185;-66
2024/01/25 02:25:58;;;;;;;6.77;5.57;;;;;;;9.20;60.13;94933.94;5112825;28;20193;-66
2024/01/25 02:28:25;;;;;;;7.80;5.73;;;;;;;9.24;60.32;94950.63;5113064;28;20615;-67
2024/01/25 02:30:52;;;;;;;7.93;5.43;;;;;;;9.16;60.23;94927.47;5113432;28;20193;-68
2024/01/25 02:33:19;;;;;;;9.80;5.57;;;;;;;9.21;60.49;94919.44;5113283;28;20196;-66
2024/01/25 02:35:46;;;;;;;7.57;5.33;;;;;;;9.34;60.34;94939.69;5119138;28;20184;-65
2024/01/25 02:38:12;;;;;;;6.13;4.73;;;;;;;9.36;60.35;94933.50;5118764;28;20193;-68
2024/01/25 02:40:41;;;;;;;7.13;4.90;;;;;;;9.37;60.37;94944.50;5113827;28;20189;-68
2024/01/25 02:43:08;;;;;;;7.40;5.00;;;;;;;9.37;60.34;94931.75;5113044;28;20188;-64
2024/01/25 02:45:34;;;;;;;5.60;5.00;;;;;;;9.40;60.37;94936.63;5113024;28;20177;-66
2024/01/25 02:48:02;;;;;;;7.60;4.80;;;;;;;9.34;60.40;94919.25;5112623;28;20684;-65
2024/01/25 02:50:28;;;;;;;6.80;4.47;;;;;;;9.38;60.61;94908.69;5112815;28;20260;-64
2024/01/25 02:52:55;;;;;;;6.87;5.00;;;;;;;9.40;60.04;94914.44;5113044;28;20611;-65
2024/01/25 02:55:22;;;;;;;5.20;3.90;;;;;;;9.40;60.43;94927.22;5112427;28;20193;-62
2024/01/25 02:57:50;;;;;;;5.33;4.30;;;;;;;9.35;60.23;94920.88;5112136;28;20692;-63
2024/01/25 03:00:17;;;;;;;5.33;4.23;;;;;;;9.42;60.42;94911.78;5112536;28;20258;-63
2024/01/25 03:02:44;;;;;;;7.17;4.27;;;;;;;9.40;60.21;94924.66;5112242;28;20582;-66
2024/01/25 03:05:11;;;;;;;5.07;3.97;;;;;;;9.14;60.52;94885.94;5112696;28;20206;-63
2024/01/25 03:07:38;;;;;;;5.33;4.07;;;;;;;9.42;60.54;94917.69;5112561;28;20294;-64
2024/01/25 03:10:06;;;;;;;4.73;3.63;;;;;;;9.43;60.57;94918.50;5112448;28;20284;-67
2024/01/25 03:12:32;;;;;;;5.87;3.63;;;;;;;9.42;60.71;94907.50;5111191;28;20197;-68
2024/01/25 03:15:01;;;;;;;3.83;3.40;;;;;;;9.51;60.64;94911.84;5112420;28;20254;-64
2024/01/25 03:17:28;;;;;;;4.80;3.50;;;;;;;9.56;60.61;94908.91;5112516;28;20238;-65
2024/01/25 03:19:54;;;;;;;3.23;2.90;;;;;;;9.61;60.76;94911.09;5112123;28;20605;-68
2024/01/25 03:22:22;;;;;;;5.93;3.30;;;;;;;9.64;60.55;94918.50;5112145;28;20185;-65
2024/01/25 03:24:49;;;;;;;5.33;3.67;;;;;;;9.50;60.66;94891.56;5112130;28;20220;-66
2024/01/25 03:27:15;;;;;;;3.47;2.90;;;;;;;9.66;60.39;94904.66;5111921;28;20193;-63
2024/01/25 03:29:43;;;;;;;3.27;2.83;;;;;;;9.75;60.79;94908.19;5112133;28;20208;-68
2024/01/25 03:32:11;;;;;;;6.63;3.17;;;;;;;9.78;60.76;94902.84;5112011;28;20645;-63
2024/01/25 03:34:38;;;;;;;3.67;2.83;;;;;;;9.81;60.87;94915.38;5111843;28;20673;-63
2024/01/25 03:37:05;;;;;;;3.10;2.80;;;;;;;9.76;60.81;94894.50;5112139;28;20662;-66
2024/01/25 03:39:32;;;;;;;3.47;2.80;;;;;;;9.80;60.97;94886.47;5111525;28;20665;-64
2024/01/25 03:41:58;;;;;;;3.33;2.90;;;;;;;9.89;60.99;94873.84;5112100;28;20193;-64
2024/01/25 03:44:25;;;;;;;3.17;2.57;;;;;;;9.68;61.00;94838.16;5111135;28;20275;-66
2024/01/25 03:46:52;;;;;;;2.97;2.50;;;;;;;9.93;61.14;94880.31;5112092;28;20196;-64
2024/01/25 03:49:22;;;;;;;2.70;2.47;;;;;;;9.92;61.19;94878.69;5111934;28;20220;-65
2024/01/25 03:51:49;;;;;;;3.37;2.60;;;;;;;9.90;61.14;94889.03;5111775;28;20193;-63
2024/01/25 03:54:16;;;;;;;2.70;2.50;;;;;;;9.81;61.08;94846.41;5111479;28;20181;-64
2024/01/25 03:56:43;;;;;;;2.77;2.33;;;;;;;9.99;61.13;94872.94;5111447;28;20320;-65
2024/01/25 03:59:12;;;;;;;2.50;2.30;;;;;;;9.84;61.18;94823.13;5111770;28;20654;-64
2024/01/25 04:01:43;;;;;;;4.03;2.30;;;;;;;10.04;61.08;94852.09;5111577;28;20185;-66
2024/01/25 04:04:10;;;;;;;3.13;2.43;;;;;;;10.05;61.33;94843.50;5111534;28;20610;-65
2024/01/25 04:06:41;;;;;;;2.97;2.20;;;;;;;9.96;61.04;94832.31;5111263;28;20184;-64
2024/01/25 04:09:08;;;;;;;2.30;2.10;;;;;;;10.08;61.00;94856.03;5111474;28;20228;-68
2024/01/25 04:11:35;;;;;;;3.67;2.33;;;;;;;10.09;61.27;94849.16;5111489;28;20193;-69
2024/01/25 04:14:02;;;;;;;3.77;2.27;;;;;;;10.11;61.03;94854.97;5111560;28;20337;-69
2024/01/25 04:16:28;;;;;;;3.83;2.00;;;;;;;10.13;61.23;94855.63;5110983;28;20193;-68
2024/01/25 04:18:55;;;;;;;2.30;2.10;;;;;;;10.13;61.26;94859.00;5111279;28;20184;-67
2024/01/25 04:21:22;;;;;;;2.00;1.90;;;;;;;10.16;61.18;94852.81;5110629;28;20193;-67
2024/01/25 04:23:50;;;;;;;2.37;1.93;;;;;;;10.17;60.97;94854.44;5111065;28;20204;-67
2024/01/25 04:26:17;;;;;;;2.50;2.30;;;;;;;10.18;61.08;94848.38;5110892;28;20185;-67
2024/01/25 04:28:44;;;;;;;2.33;2.00;;;;;;;10.19;61.02;94848.25;5111381;28;20224;-68
2024/01/25 04:31:11;;;;;;;2.13;2.03;;;;;;;10.20;61.11;94846.50;5111152;28;20262;-68
2024/01/25 04:33:40;;;;;;;1.87;1.77;;;;;;;10.11;61.20;94834.53;5110732;28;20199;-67
2024/01/25 04:36:07;;;;;;;2.97;1.83;;;;;;;10.04;61.05;94835.03;5111404;28;20264;-69
2024/01/25 04:38:33;;;;;;;2.23;2.00;;;;;;;10.22;61.01;94860.75;5111272;28;20731;-67
2024/01/25 04:41:01;;;;;;;3.90;1.80;;;;;;;10.22;60.88;94872.72;5110880;28;20193;-64
2024/01/25 04:43:28;;;;;;;2.30;2.10;;;;;;;10.19;61.17;94870.44;5110874;28;20189;-66
2024/01/25 04:45:55;;;;;;;2.67;2.10;;;;;;;10.22;60.86;94888.88;5111216;28;20181;-64
2024/01/25 04:48:22;;;;;;;2.20;2.00;;;;;;;10.18;60.94;94894.38;5109631;28;20205;-65
2024/01/25 04:50:48;;;;;;;1.67;1.57;;;;;;;10.22;61.00;94906.75;5110080;28;20226;-68
2024/01/25 04:53:15;;;;;;;2.20;2.00;;;;;;;10.17;61.01;94896.13;5111058;28;20189;-69
2024/01/25 04:55:42;;;;;;;3.27;2.20;;;;;;;10.20;60.85;94902.72;5111180;28;20185;-70
2024/01/25 04:58:11;;;;;;;2.40;2.20;;;;;;;10.17;60.98;94914.00;5110375;28;20632;-69
2024/01/25 05:00:39;;;;;;;4.63;2.40;;;;;;;10.15;60.92;94912.53;5110962;28;20187;-65
2024/01/25 05:03:06;;;;;;;4.07;2.43;;;;;;;9.90;60.92;94885.69;5110387;28;20242;-69
2024/01/25 05:05:33;;;;;;;2.50;2.30;;;;;;;10.10;60.83;94935.09;5110065;28;20199;-63
2024/01/25 05:08:00;;;;;;;2.10;2.00;;;;;;;10.06;61.01;94926.91;5111080;28;20292;-71
2024/01/25 05:10:27;;;;;;;3.23;2.23;;;;;;;10.03;60.83;94917.75;5111047;28;20284;-68
2024/01/25 05:12:54;;;;;;;2.90;2.43;;;;;;;9.90;60.73;94904.38;5110779;28;20208;-68
2024/01/25 05:15:22;;;;;;;3.07;2.33;;;;;;;9.97;60.98;94940.41;5111763;28;20203;-68
2024/01/25 05:17:49;;;;;;;2.77;2.10;;;;;;;9.94;60.89;94930.47;5118741;28;20613;-69
2024/01/25 05:20:17;;;;;;;2.20;2.00;;;;;;;9.92;60.92;94937.44;5113143;28;20184;-66
2024/01/25 05:22:45;;;;;;;2.07;1.90;;;;;;;9.88;61.06;94946.28;5110858;28;20224;-70
2024/01/25 05:25:12;;;;;;;2.43;2.23;;;;;;;9.90;61.03;94952.09;5110344;27;20177;-67
2024/01/25 05:27:39;;;;;;;2.50;2.20;;;;;;;9.91;60.89;94954.53;5109776;28;20189;-64
2024/01/25 05:30:10;;;;;;;2.83;2.23;;;;;;;9.91;60.80;94954.53;5109556;28;20239;-71
2024/01/25 05:32:38;;;;;;;3.97;2.30;;;;;;;9.89;60.82;94947.94;5109940;28;20549;-66
2024/01/25 05:35:06;;;;;;;3.50;2.50;;;;;;;9.92;60.80;94958.69;5098560;28;20193;-66
2024/01/25 05:37:33;;;;;;;2.17;2.00;;;;;;;9.92;60.64;94971.47;5089775;28;20200;-67
2024/01/25 05:40:00;;;;;;;2.87;2.23;;;;;;;9.90;60.86;94958.00;5089334;28;20189;-64
2024/01/25 05:42:27;;;;;;;2.47;2.03;;;;;;;9.93;60.76;94955.22;5104442;28;20188;-66
2024/01/25 05:44:53;;;;;;;3.20;2.50;;;;;;;9.94;60.56;94968.78;5109182;28;20192;-68
2024/01/25 05:47:20;;;;;;;2.50;2.30;;;;;;;9.84;60.60;94947.47;5108797;28;20299;-62
2024/01/25 05:49:49;;;;;;;3.27;2.47;;;;;;;9.96;60.65;94961.81;5109252;28;20226;-65
2024/01/25 05:52:15;;;;;;;2.07;1.90;;;;;;;9.97;60.50;94961.69;5109336;28;20246;-64
2024/01/25 05:54:43;;;;;;;2.90;2.37;;;;;;;9.98;60.38;94990.59;5109150;28;20181;-62
2024/01/25 05:57:10;;;;;;;2.40;1.97;;;;;;;9.99;60.49;94987.91;5107922;28;20693;-63
2024/01/25 05:59:37;;;;;;;2.53;2.23;;;;;;;9.85;60.35;94969.56;5109042;28;20185;-65
2024/01/25 06:02:04;;;;;;;2.37;2.00;;;;;;;10.01;60.33;94986.03;5109010;28;20185;-64
2024/01/25 06:04:31;;;;;;;3.13;2.17;;;;;;;9.79;60.38;94953.78;5109231;28;20200;-63
2024/01/25 06:07:00;;;;;;;5.67;2.37;;;;;;;9.95;60.27;94989.09;5109126;28;20187;-63
2024/01/25 06:09:27;;;;;;;2.17;1.97;;;;;;;10.04;60.18;94996.00;5109739;28;20227;-65
2024/01/25 06:11:54;;;;;;;2.00;1.80;;;;;;;9.90;60.22;94975.09;5109762;28;20195;-64
2024/01/25 06:14:21;;;;;;;3.13;2.30;;;;;;;10.06;60.29;95003.56;5109508;28;20193;-62
2024/01/25 06:16:47;;;;;;;2.87;2.00;;;;;;;10.08;60.22;95005.97;5108959;28;20265;-62
2024/01/25 06:19:17;;;;;;;4.20;2.57;;;;;;;10.09;60.01;95005.03;5109429;28;20185;-67
2024/01/25 06:21:43;;;;;;;3.23;2.07;;;;;;;9.97;60.01;94982.13;5109675;28;20213;-65
2024/01/25 06:24:12;;;;;;;2.73;1.97;;;;;;;9.87;60.05;94957.47;5109896;28;20216;-63
2024/01/25 06:26:38;;;;;;;2.43;2.00;;;;;;;10.11;60.12;95018.50;5109465;28;20185;-63
2024/01/25 06:29:05;;;;;;;2.43;2.20;;;;;;;10.12;60.07;95013.25;5109138;28;20656;-64
2024/01/25 06:31:32;;;;;;;2.70;1.90;;;;;;;10.14;60.21;95002.91;5109401;28;20256;-64
2024/01/25 06:33:59;;;;;;;3.20;2.20;;;;;;;10.14;60.04;95002.91;5108991;28;20185;-62
2024/01/25 06:36:26;;;;;;;2.47;2.13;;;;;;;10.16;59.95;95013.81;5109309;28;20220;-63
2024/01/25 06:38:53;;;;;;;4.37;2.47;;;;;;;10.19;59.82;95018.66;5109372;28;20188;-62
2024/01/25 06:41:21;;;;;;;1.93;1.83;;;;;;;10.20;60.07;95015.19;5109543;28;20242;-62
2024/01/25 06:43:48;;;;;;;2.70;2.30;;;;;;;10.10;59.94;94996.41;5109299;28;20192;-67
2024/01/25 06:46:14;;;;;;;3.43;2.40;;;;;;;10.13;59.79;94998.72;5110433;28;20201;-68
2024/01/25 06:48:41;;;;;;;3.93;2.20;;;;;;;10.25;59.83;95019.00;5112517;28;20200;-63
2024/01/25 06:51:08;;;;;;;2.40;2.20;;;;;;;10.27;59.95;95024.78;5113077;28;20181;-65
2024/01/25 06:53:35;;;;;;;3.97;2.37;;;;;;;10.30;59.91;95018.63;5112474;28;20188;-64
2024/01/25 06:56:02;;;;;;;4.13;2.30;;;;;;;10.20;59.79;94998.09;5112910;28;20229;-68
2024/01/25 06:58:30;;;;;;;3.13;2.57;;;;;;;10.34;59.81;95025.09;5113209;28;20542;-67
2024/01/25 07:00:57;;;;;;;5.70;2.43;;;;;;;10.42;59.79;95034.69;5112528;28;20193;-67
2024/01/25 07:03:23;;;;;;;3.90;2.80;;;;;;;10.46;59.53;95038.59;5112877;28;20185;-62
2024/01/25 07:05:50;;;;;;;4.20;2.10;;;;;;;10.45;59.76;95037.81;5112663;28;20195;-66
2024/01/25 07:08:17;;;;;;;2.67;2.00;;;;;;;10.55;59.59;95030.97;5112917;28;20189;-67
2024/01/25 07:10:45;;;;;;;2.50;2.30;;;;;;;10.63;59.53;95039.75;5112018;28;20205;-65
2024/01/25 07:13:12;;;;;;;4.77;2.63;;;;;;;10.71;59.34;95030.50;5112367;28;20242;-67
2024/01/25 07:15:40;;;;;;;3.40;2.40;;;;;;;10.61;59.21;94993.03;5111672;28;20187;-68
2024/01/25 07:18:07;;;;;;;3.67;2.40;;;;;;;10.88;59.10;95000.91;5112511;28;20245;-68
2024/01/25 07:20:34;;;;;;;3.60;2.20;;;;;;;10.91;58.91;94980.16;5111834;28;20633;-63
2024/01/25 07:23:01;;;;;;;7.17;2.57;;;;;;;10.92;58.77;94986.09;5112043;28;20185;-68
2024/01/25 07:25:27;;;;;;;3.63;2.40;;;;;;;10.80;58.84;94964.94;5112019;28;20192;-68
2024/01/25 07:27:54;;;;;;;3.47;2.30;;;;;;;11.13;58.91;95004.69;5112185;28;20197;-68
2024/01/25 07:30:21;;;;;;;3.23;2.43;;;;;;;11.17;58.53;95007.81;5111845;28;20290;-63
2024/01/25 07:32:50;;;;;;;3.80;2.27;;;;;;;10.96;58.65;94969.53;5112073;28;20646;-63
2024/01/25 07:35:17;;;;;;;3.57;2.30;;;;;;;11.22;58.51;95008.22;5112218;28;20192;-66
2024/01/25 07:37:44;;;;;;;4.57;2.73;;;;;;;11.18;58.49;94991.50;5112124;28;20599;-67
2024/01/25 07:40:11;;;;;;;4.50;2.43;;;;;;;11.26;58.63;94999.31;5111972;28;20182;-68
2024/01/25 07:42:38;;;;;;;4.53;2.53;;;;;;;11.29;58.44;95001.63;5111690;28;20193;-68
2024/01/25 07:45:06;;;;;;;2.90;2.37;;;;;;;11.34;58.37;95008.91;5111707;28;20662;-69
2024/01/25 07:47:33;;;;;;;4.23;2.57;;;;;;;11.38;58.42;95010.25;5111133;28;20192;-69
2024/01/25 07:50:01;;;;;;;5.43;2.93;;;;;;;11.43;58.36;95011.44;5112041;28;20217;-69
2024/01/25 07:52:28;;;;;;;5.60;2.40;;;;;;;11.47;58.43;95025.59;5111892;28;20808;-68
2024/01/25 07:54:55;;;;;;;3.53;2.47;;;;;;;11.50;58.06;95035.59;5116196;28;20192;-64
2024/01/25 07:57:22;;;;;;;3.73;2.73;;;;;;;11.53;58.11;95029.41;5116627;28;20229;-65
2024/01/25 07:59:48;;;;;;;4.03;2.53;;;;;;;11.61;57.91;95031.25;5113639;28;20193;-63
2024/01/25 08:02:16;;;;;;;5.57;2.20;;;;;;;11.29;57.88;94969.16;5112011;28;20197;-66
2024/01/25 08:04:43;;;;;;;6.10;2.80;;;;;;;11.85;57.34;95041.94;5111459;28;20613;-63
2024/01/25 08:07:11;;;;;;;2.63;2.37;;;;;;;11.97;57.24;95040.03;5111489;28;20188;-64
2024/01/25 08:09:38;;;;;;;4.30;3.07;;;;;;;12.02;57.04;95025.84;5111338;28;20293;-63
2024/01/25 08:12:05;;;;;;;4.53;2.73;;;;;;;12.17;57.03;95028.78;5111226;28;20193;-65
2024/01/25 08:14:32;;;;;;;3.40;2.50;;;;;;;12.27;56.92;95034.72;5110639;28;20276;-65
2024/01/25 08:17:00;;;;;;;5.40;2.90;;;;;;;12.30;56.65;95018.22;5111359;28;20197;-65
2024/01/25 08:19:26;;;;;;;5.40;2.83;;;;;;;12.45;56.70;95026.28;5110915;28;20346;-66
2024/01/25 08:21:53;;;;;;;3.33;2.60;;;;;;;12.52;56.34;95035.84;5111473;28;20181;-66
2024/01/25 08:24:22;;;;;;;5.57;2.27;;;;;;;12.59;56.45;95043.78;5110743;28;20196;-64
2024/01/25 08:26:49;;;;;;;5.17;2.50;;;;;;;12.67;56.36;95033.59;5111288;28;20188;-64
2024/01/25 08:29:16;;;;;;;5.37;2.60;;;;;;;12.74;56.17;95031.31;5110658;28;20197;-64
2024/01/25 08:31:43;;;;;;;4.23;2.60;;;;;;;12.83;56.03;95022.75;5110635;28;20242;-64
2024/01/25 08:34:09;;;;;;;4.33;2.73;;;;;;;12.85;55.81;95010.56;5110968;28;20181;-62
2024/01/25 08:36:36;;;;;;;5.20;2.93;;;;;;;12.90;55.71;95007.56;5110882;28;20189;-66
2024/01/25 08:39:03;;;;;;;3.33;2.70;;;;;;;13.02;55.62;95025.19;5110793;28;20196;-64
2024/01/25 08:41:32;;;;;;;5.40;3.00;;;;;;;13.00;55.34;95018.59;5110558;28;20271;-67
2024/01/25 08:43:58;;;;;;;4.47;2.67;;;;;;;13.00;55.36;95011.69;5110625;28;20227;-67
2024/01/25 08:46:25;;;;;;;6.87;2.70;;;;;;;13.14;55.17;95023.22;5110426;28;20664;-67
2024/01/25 08:48:52;;;;;;;4.33;2.73;;;;;;;13.23;55.29;95039.56;5110499;28;20189;-67
2024/01/25 08:51:19;;;;;;;6.00;2.87;;;;;;;13.28;55.07;95037.34;5110420;28;20634;-69
2024/01/25 08:53:45;;;;;;;4.03;2.47;;;;;;;13.34;55.04;95041.09;5110445;28;20185;-66
2024/01/25 08:56:12;;;;;;;5.40;2.70;;;;;;;13.39;54.86;95052.56;5110235;28;20227;-66
2024/01/25 08:58:40;;;;;;;5.60;2.80;;;;;;;13.34;54.65;95031.63;5110300;28;20195;-64
2024/01/25 09:01:07;;;;;;;4.80;2.90;;;;;;;13.53;54.35;95051.25;5110154;28;20685;-67
2024/01/25 09:03:34;;;;;;;5.97;2.80;;;;;;;13.64;54.28;95048.44;5111350;28;20192;-67
2024/01/25 09:06:05;;;;;;;6.40;2.93;;;;;;;13.74;54.09;95054.31;5111006;28;20615;-68
2024/01/25 09:08:31;;;;;;;5.40;3.03;;;;;;;13.73;53.85;95054.44;5110562;28;20204;-66
2024/01/25 09:10:58;;;;;;;5.83;3.10;;;;;;;13.73;53.93;95041.59;5109397;28;20220;-69
2024/01/25 09:13:25;;;;;;;3.20;2.57;;;;;;;13.61;53.80;95011.97;5110299;28;20228;-66
2024/01/25 09:15:54;;;;;;;3.87;2.60;;;;;;;13.64;53.95;95017.59;5110128;28;20189;-67
2024/01/25 09:18:20;;;;;;;5.63;2.97;;;;;;;13.52;53.87;95000.81;5110446;28;20201;-64
2024/01/25 09:20:48;;;;;;;8.00;3.23;;;;;;;13.84;53.68;95049.09;5109812;28;20192;-66
2024/01/25 09:23:16;;;;;;;5.23;2.83;;;;;;;13.87;53.82;95046.22;5110258;28;20200;-67
2024/01/25 09:25:43;;;;;;;5.03;2.83;;;;;;;13.89;53.73;95044.31;5110167;28;20199;-64
2024/01/25 09:28:11;;;;;;;5.40;2.83;;;;;;;13.84;53.79;95025.16;5109946;28;20280;-63
2024/01/25 09:30:38;;;;;;;5.73;2.87;;;;;;;13.86;53.42;95029.19;5109759;28;20341;-63
2024/01/25 09:33:07;;;;;;;4.90;2.87;;;;;;;13.84;53.69;95036.25;5109946;28;20188;-67
2024/01/25 09:35:34;;;;;;;5.43;2.77;;;;;;;13.79;53.84;95034.13;5110049;28;20200;-64
2024/01/25 09:38:00;;;;;;;10.13;3.07;;;;;;;13.87;53.68;95037.72;5109960;28;20197;-69
2024/01/25 09:40:27;;;;;;;6.67;3.40;;;;;;;13.67;53.50;94981.31;5110233;28;20619;-65
2024/01/25 09:42:55;;;;;;;4.77;3.10;;;;;;;13.97;53.75;95017.84;5110017;28;20188;-68
2024/01/25 09:45:25;;;;;;;4.93;3.00;;;;;;;13.97;53.66;95008.38;5110255;28;20196;-65
2024/01/25 09:47:52;;;;;;;4.30;2.90;;;;;;;13.93;53.54;95014.78;5109646;28;20255;-70
2024/01/25 09:50:20;;;;;;;6.47;2.70;;;;;;;13.95;53.60;95006.94;5110037;28;20221;-67
2024/01/25 09:52:54;;;;;;;6.67;3.37;;;;;;;13.94;53.59;94987.28;5109950;28;20300;-67
2024/01/25 09:55:26;;;;;;;8.40;3.53;;;;;;;13.74;53.52;94955.84;5110147;28;20196;-65
2024/01/25 09:57:55;;;;;;;3.50;3.00;;;;;;;13.91;53.57;94985.84;5109612;28;20784;-66
2024/01/25 10:00:22;;;;;;;5.00;3.13;;;;;;;13.92;53.61;94984.88;5109728;28;20232;-68
2024/01/25 10:02:49;;;;;;;4.70;2.43;;;;;;;13.89;53.58;94986.94;5109642;28;20192;-68
2024/01/25 10:05:16;;;;;;;3.43;2.67;;;;;;;13.86;53.55;94982.94;5109892;28;20301;-68
2024/01/25 10:07:46;;;;;;;7.90;3.00;;;;;;;13.80;53.73;94978.38;5109314;28;20184;-67
2024/01/25 10:10:14;;;;;;;4.50;2.80;;;;;;;13.81;53.66;94972.25;5109580;28;20231;-64
2024/01/25 10:12:42;;;;;;;5.07;3.00;;;;;;;13.77;53.56;94969.22;5109223;28;20296;-66
2024/01/25 10:15:10;;;;;;;4.47;2.80;;;;;;;13.81;53.36;94967.13;5109541;28;20242;-67
2024/01/25 10:17:37;;;;;;;6.37;2.83;;;;;;;13.84;53.28;94959.13;5109307;28;20620;-67
2024/01/25 10:20:07;;;;;;;4.30;2.43;;;;;;;13.85;53.39;94954.78;5109613;28;20189;-66
2024/01/25 10:22:34;;;;;;;5.30;3.07;;;;;;;13.78;53.38;94946.88;5113243;28;20200;-65
2024/01/25 10:25:02;;;;;;;7.70;2.77;;;;;;;13.92;53.44;94964.31;5113244;28;20590;-69
2024/01/25 10:27:29;;;;;;;8.57;2.90;;;;;;;13.94;53.32;94967.53;5113290;28;20653;-65
2024/01/25 10:29:57;;;;;;;4.67;2.87;;;;;;;13.98;53.18;94961.13;5113116;28;20225;-68
2024/01/25 10:32:24;;;;;;;6.40;3.30;;;;;;;14.04;53.08;94965.69;5116189;28;20184;-65
2024/01/25 10:34:52;;;;;;;2.60;2.30;;;;;;;14.14;52.90;94964.75;5122462;28;20197;-64
2024/01/25 10:37:21;;;;;;;6.40;3.17;;;;;;;14.22;52.76;94965.59;5121532;28;20189;-66
2024/01/25 10:39:49;;;;;;;4.67;2.77;;;;;;;14.18;52.86;94946.28;5113422;28;20213;-67
2024/01/25 10:42:17;;;;;;;5.47;3.20;;;;;;;14.31;52.61;94958.75;5113301;28;20188;-64
2024/01/25 10:44:45;;;;;;;6.07;3.20;;;;;;;14.43;52.65;94961.84;5112943;28;20205;-66
2024/01/25 10:47:13;;;;;;;8.57;3.73;;;;;;;14.49;52.59;94951.75;5113170;28;20193;-68
2024/01/25 10:49:39;;;;;;;5.20;3.17;;;;;;;13.98;52.49;94853.13;5112703;28;20634;-65
2024/01/25 10:52:07;;;;;;;5.40;2.97;;;;;;;14.55;52.27;94924.63;5113266;28;20220;-68
2024/01/25 10:54:34;;;;;;;5.30;3.40;;;;;;;14.72;52.22;94938.31;5112525;28;20200;-65
2024/01/25 10:57:02;;;;;;;4.43;2.57;;;;;;;14.80;52.15;94941.72;5112794;28;20217;-69
2024/01/25 10:59:31;;;;;;;4.73;2.80;;;;;;;14.87;52.08;94931.59;5112933;28;20185;-68
2024/01/25 11:01:58;;;;;;;3.40;2.83;;;;;;;14.90;52.04;94931.31;5112752;28;20193;-65
2024/01/25 11:04:24;;;;;;;5.73;3.10;;;;;;;14.72;51.85;94890.25;5112891;28;20192;-65
2024/01/25 11:06:52;;;;;;;4.73;3.33;;;;;;;14.99;51.71;94925.19;5112332;28;20204;-68
2024/01/25 11:09:20;;;;;;;8.87;3.10;;;;;;;14.99;51.85;94914.09;5112725;28;20258;-68
2024/01/25 11:11:48;;;;;;;7.00;3.10;;;;;;;14.98;51.75;94908.13;5112023;28;20224;-65
2024/01/25 11:14:16;;;;;;;8.33;3.73;;;;;;;14.95;51.93;94897.34;5112397;28;20231;-66
2024/01/25 11:16:46;;;;;;;5.67;3.30;;;;;;;14.92;51.80;94898.47;5112102;27;20185;-66
2024/01/25 11:19:18;;;;;;;3.77;2.90;;;;;;;14.91;51.70;94889.13;5112347;28;20286;-64
2024/01/25 11:21:46;;;;;;;5.70;3.23;;;;;;;14.91;51.89;94886.56;5112287;28;20193;-65
2024/01/25 11:24:14;;;;;;;4.17;3.00;;;;;;;14.91;51.92;94883.16;5112061;28;20188;-64
2024/01/25 11:26:41;;;;;;;6.53;3.20;;;;;;;14.88;51.82;94884.28;5111895;28;20257;-65
2024/01/25 11:29:08;;;;;;;3.93;3.00;;;;;;;14.84;51.68;94884.75;5112928;28;20185;-63
2024/01/25 11:31:35;;;;;;;4.80;2.80;;;;;;;14.75;51.92;94874.44;5112056;28;20225;-64
2024/01/25 11:34:04;;;;;;;3.93;3.00;;;;;;;14.65;51.96;94888.44;5111428;28;20185;-62